Time;durP1;ratioP1;P1;durP2;ratioP2;P2;SDS_P1;SDS_P2;PMS_P1;PMS_P2;Temp;Humidity;BMP_temperature;BMP_pressure;BME280_temperature;BME280_humidity;BME280_pressure;Samples;Min_cycle;Max_cycle;Signal;HPM_P1;HPM_P2
2021/04/08 00:01:17;;;;;;;0.20;0.20;;;;;;;3.15;57.21;98457.66;5094765;28;20039;-58
2021/04/08 00:03:44;;;;;;;0.20;0.20;;;;;;;3.09;57.40;98463.84;5092585;28;20114;-58
2021/04/08 00:06:11;;;;;;;0.20;0.20;;;;;;;3.00;57.63;98465.03;5094581;28;20056;-58
2021/04/08 00:08:36;;;;;;;0.20;0.20;;;;;;;2.94;57.77;98466.66;5094793;28;20062;-59
2021/04/08 00:11:02;;;;;;;0.20;0.20;;;;;;;2.95;57.56;98473.75;5094715;28;20048;-59
2021/04/08 00:13:28;;;;;;;0.20;0.20;;;;;;;2.95;57.66;98469.16;5094450;28;20056;-58
2021/04/08 00:15:54;;;;;;;0.20;0.20;;;;;;;2.94;57.72;98466.66;5094103;28;20492;-58
2021/04/08 00:18:20;;;;;;;0.30;0.30;;;;;;;2.95;57.55;98468.34;5094486;28;20063;-59
2021/04/08 00:20:46;;;;;;;0.20;0.20;;;;;;;2.94;57.67;98467.47;5074043;28;20185;-59
2021/04/08 00:23:11;;;;;;;0.20;0.20;;;;;;;2.95;57.67;98460.19;5092603;28;20078;-59
2021/04/08 00:25:38;;;;;;;0.80;0.65;;;;;;;2.91;57.63;98461.63;5094503;28;20090;-59
2021/04/08 00:28:05;;;;;;;0.20;0.20;;;;;;;2.88;57.84;98456.59;5094246;28;20040;-58
2021/04/08 00:30:42;;;;;;;0.20;0.20;;;;;;;2.83;57.92;98454.47;5094433;28;20067;-58
2021/04/08 00:33:11;;;;;;;0.20;0.20;;;;;;;2.76;58.04;98462.50;5094410;28;20062;-59
2021/04/08 00:35:38;;;;;;;0.20;0.20;;;;;;;2.72;58.11;98453.09;5094284;28;20052;-58
2021/04/08 00:38:04;;;;;;;0.20;0.20;;;;;;;2.70;58.08;98449.75;5094154;28;20056;-58
2021/04/08 00:40:30;;;;;;;0.20;0.20;;;;;;;2.69;58.02;98442.63;5094329;28;20109;-58
2021/04/08 00:42:56;;;;;;;0.20;0.20;;;;;;;2.67;58.01;98443.88;5094261;28;20109;-58
2021/04/08 00:45:22;;;;;;;0.20;0.20;;;;;;;2.62;58.13;98436.28;5073790;28;20178;-58
2021/04/08 00:47:48;;;;;;;0.20;0.20;;;;;;;2.54;58.57;98434.56;5084369;28;20169;-59
2021/04/08 00:50:15;;;;;;;0.20;0.20;;;;;;;2.50;58.41;98427.00;5072027;28;20528;-59
2021/04/08 00:53:06;;;;;;;0.20;0.20;;;;;;;2.43;58.68;98430.50;5073668;28;20048;-59
2021/04/08 00:55:39;;;;;;;0.20;0.20;;;;;;;2.41;58.61;98423.56;5054860;28;20116;-58
2021/04/08 00:58:05;;;;;;;0.20;0.20;;;;;;;2.35;58.61;98436.00;5053746;28;20045;-58
2021/04/08 01:00:33;;;;;;;0.20;0.20;;;;;;;2.29;58.80;98420.53;5053680;28;20053;-58
2021/04/08 01:02:59;;;;;;;0.52;0.52;;;;;;;2.27;58.75;98417.19;5085753;28;20455;-59
2021/04/08 01:05:26;;;;;;;0.20;0.20;;;;;;;2.24;58.92;98404.03;5104328;28;20582;-59
2021/04/08 01:07:51;;;;;;;0.30;0.30;;;;;;;2.23;58.72;98402.34;5089552;28;20050;-59
2021/04/08 01:10:20;;;;;;;0.20;0.20;;;;;;;2.25;58.78;98411.09;5089635;28;20452;-57
2021/04/08 01:12:46;;;;;;;0.20;0.20;;;;;;;2.25;58.60;98409.25;5093914;28;20059;-58
2021/04/08 01:15:13;;;;;;;0.20;0.20;;;;;;;2.26;58.57;98410.09;5089404;28;20517;-57
2021/04/08 01:17:50;;;;;;;0.20;0.20;;;;;;;2.26;58.60;98408.19;5072630;28;20083;-59
2021/04/08 01:20:53;;;;;;;0.20;0.20;;;;;;;2.29;58.80;98415.13;5089937;28;20105;-60
2021/04/08 01:23:34;;;;;;;0.40;0.40;;;;;;;2.30;58.45;98403.25;5093486;28;20048;-58
2021/04/08 01:26:25;;;;;;;0.20;0.20;;;;;;;2.30;58.52;98403.25;5089007;28;20418;-61
2021/04/08 01:29:11;;;;;;;0.20;0.20;;;;;;;2.32;58.28;98386.81;5089231;28;20059;-59
2021/04/08 01:31:39;;;;;;;0.20;0.20;;;;;;;2.31;58.54;98379.69;5071791;28;20064;-59
2021/04/08 01:34:10;;;;;;;0.20;0.20;;;;;;;2.27;58.62;98392.81;5092933;28;20181;-58
2021/04/08 01:36:38;;;;;;;0.30;0.30;;;;;;;2.25;58.58;98378.59;5093337;28;20048;-61
2021/04/08 01:39:10;;;;;;;0.20;0.20;;;;;;;2.26;58.54;98383.81;5070934;28;20040;-58
2021/04/08 01:41:38;;;;;;;0.20;0.20;;;;;;;2.28;58.57;98383.63;5092943;28;20409;-59
2021/04/08 01:44:06;;;;;;;0.20;0.20;;;;;;;2.29;58.55;98382.59;5092972;28;20051;-59
2021/04/08 01:46:35;;;;;;;0.20;0.20;;;;;;;2.28;58.40;98384.47;5094548;28;20096;-59
2021/04/08 01:49:04;;;;;;;0.20;0.20;;;;;;;2.31;58.57;98382.41;5097257;28;20048;-62
2021/04/08 01:51:32;;;;;;;0.20;0.20;;;;;;;2.29;58.70;98379.91;5088378;28;20509;-59
2021/04/08 01:54:02;;;;;;;0.20;0.20;;;;;;;2.26;58.62;98375.69;5088780;28;20576;-58
2021/04/08 01:56:37;;;;;;;0.20;0.20;;;;;;;2.24;58.78;98379.66;5085832;28;20156;-58
2021/04/08 01:59:05;;;;;;;0.30;0.30;;;;;;;2.20;58.79;98372.94;5058248;28;20153;-60
2021/04/08 02:01:33;;;;;;;0.20;0.20;;;;;;;2.15;58.79;98372.66;5077959;28;20044;-57
2021/04/08 02:03:59;;;;;;;0.20;0.20;;;;;;;2.09;58.95;98366.97;5080507;28;20033;-61
2021/04/08 02:06:28;;;;;;;0.20;0.20;;;;;;;2.06;58.89;98371.94;5082618;28;20557;-59
2021/04/08 02:08:56;;;;;;;0.45;0.43;;;;;;;2.06;58.86;98371.94;5087795;28;20109;-59
2021/04/08 02:11:24;;;;;;;0.20;0.20;;;;;;;2.10;58.95;98363.22;5081636;28;20390;-59
2021/04/08 02:13:51;;;;;;;0.40;0.40;;;;;;;2.14;58.63;98354.75;5079407;28;20052;-59
2021/04/08 02:16:19;;;;;;;0.30;0.30;;;;;;;2.22;58.54;98354.59;5079722;28;20044;-57
2021/04/08 02:18:47;;;;;;;0.20;0.20;;;;;;;2.36;58.24;98351.00;5081627;28;20175;-59
2021/04/08 02:21:15;;;;;;;0.45;0.45;;;;;;;2.66;57.53;98355.44;5081834;28;20130;-58
2021/04/08 02:23:43;;;;;;;0.20;0.20;;;;;;;2.96;56.95;98356.13;5080580;28;20051;-58
2021/04/08 02:26:11;;;;;;;0.20;0.20;;;;;;;2.97;56.82;98357.78;5091925;28;20052;-58
2021/04/08 02:28:38;;;;;;;0.20;0.20;;;;;;;2.93;57.29;98345.63;5092214;28;20048;-58
2021/04/08 02:31:05;;;;;;;0.30;0.30;;;;;;;2.87;57.42;98341.00;5092142;28;20513;-58
2021/04/08 02:33:31;;;;;;;0.20;0.20;;;;;;;2.84;57.59;98336.81;5090760;28;20550;-58
2021/04/08 02:36:00;;;;;;;0.20;0.20;;;;;;;2.94;57.49;98342.72;5091210;28;20465;-59
2021/04/08 02:38:28;;;;;;;0.20;0.20;;;;;;;3.14;57.08;98337.44;5073930;28;20040;-57
2021/04/08 02:40:55;;;;;;;0.20;0.20;;;;;;;3.24;56.99;98336.25;5092066;28;20101;-59
2021/04/08 02:43:21;;;;;;;0.30;0.30;;;;;;;3.26;56.86;98340.44;5091631;28;20067;-58
2021/04/08 02:45:48;;;;;;;0.20;0.20;;;;;;;3.33;56.68;98345.94;5073538;28;20527;-57
2021/04/08 02:48:16;;;;;;;0.20;0.20;;;;;;;3.41;56.97;98353.88;5092065;28;20044;-59
2021/04/08 02:50:43;;;;;;;0.30;0.30;;;;;;;3.70;56.44;98346.53;5090338;28;20410;-58
2021/04/08 02:53:32;;;;;;;0.40;0.40;;;;;;;4.54;54.51;98356.16;5073578;28;20080;-59
2021/04/08 02:56:26;;;;;;;0.40;0.40;;;;;;;5.59;52.80;98339.13;5092135;28;20113;-58
2021/04/08 02:58:55;;;;;;;0.20;0.20;;;;;;;5.82;52.37;98347.88;5091821;28;20059;-59
2021/04/08 03:01:25;;;;;;;0.20;0.20;;;;;;;6.25;51.75;98353.53;5092027;28;20106;-60
2021/04/08 03:03:53;;;;;;;0.20;0.20;;;;;;;6.65;51.37;98356.03;5091909;28;20138;-58
2021/04/08 03:06:20;;;;;;;0.20;0.20;;;;;;;7.23;50.76;98345.03;5091541;28;20083;-58
2021/04/08 03:08:54;;;;;;;0.20;0.20;;;;;;;7.78;50.16;98341.53;5092225;28;20052;-62
2021/04/08 03:11:23;;;;;;;0.20;0.20;;;;;;;8.12;49.85;98340.06;5073855;28;20102;-59
2021/04/08 03:13:51;;;;;;;0.20;0.20;;;;;;;8.54;49.42;98344.78;5091871;28;20139;-59
2021/04/08 03:16:21;;;;;;;0.22;0.22;;;;;;;8.74;49.40;98347.19;5091887;28;20505;-61
2021/04/08 03:18:50;;;;;;;0.20;0.20;;;;;;;8.23;50.74;98352.13;5091975;28;20137;-59
2021/04/08 03:21:16;;;;;;;0.20;0.20;;;;;;;7.33;52.95;98340.75;5092111;28;20117;-60
2021/04/08 03:23:43;;;;;;;0.40;0.40;;;;;;;6.56;54.59;98338.25;5091750;28;20048;-59
2021/04/08 03:26:11;;;;;;;0.20;0.20;;;;;;;5.88;56.12;98331.47;5091662;28;20048;-59
2021/04/08 03:28:38;;;;;;;0.20;0.20;;;;;;;5.44;57.12;98328.47;5094517;28;20048;-60
2021/04/08 03:31:05;;;;;;;0.20;0.20;;;;;;;5.22;57.38;98332.50;5095503;28;20062;-59
2021/04/08 03:33:33;;;;;;;0.20;0.20;;;;;;;5.01;57.49;98331.69;5095491;28;20044;-58
2021/04/08 03:36:02;;;;;;;0.38;0.38;;;;;;;4.84;57.46;98325.00;5095371;28;20513;-59
2021/04/08 03:38:29;;;;;;;0.20;0.20;;;;;;;4.77;57.41;98324.19;5095640;28;20051;-61
2021/04/08 03:41:01;;;;;;;0.20;0.20;;;;;;;4.70;57.32;98329.63;5095263;28;20079;-59
2021/04/08 03:43:28;;;;;;;0.30;0.30;;;;;;;4.85;56.95;98332.13;5095310;28;20494;-60
2021/04/08 03:46:02;;;;;;;0.20;0.20;;;;;;;5.38;55.58;98325.78;5095255;28;20056;-59
2021/04/08 03:48:28;;;;;;;0.20;0.20;;;;;;;6.23;53.49;98320.22;5095291;28;20048;-59
2021/04/08 03:50:56;;;;;;;0.30;0.30;;;;;;;6.92;52.20;98320.34;5095325;28;20060;-59
2021/04/08 03:53:23;;;;;;;0.20;0.20;;;;;;;7.36;51.50;98312.13;5076599;28;20036;-58
2021/04/08 03:55:49;;;;;;;0.20;0.20;;;;;;;8.11;50.16;98315.66;5095006;28;20597;-60
2021/04/08 03:58:17;;;;;;;0.20;0.20;;;;;;;7.77;51.17;98315.25;5095147;28;20131;-58
2021/04/08 04:00:44;;;;;;;0.20;0.20;;;;;;;7.84;51.31;98310.56;5094744;28;20052;-59
2021/04/08 04:03:15;;;;;;;0.10;0.10;;;;;;;8.21;50.82;98307.75;5094478;28;20106;-59
2021/04/08 04:05:43;;;;;;;0.20;0.20;;;;;;;7.51;52.15;98314.53;5094554;28;20062;-59
2021/04/08 04:08:11;;;;;;;0.10;0.10;;;;;;;7.16;53.13;98307.72;5094855;28;20417;-59
2021/04/08 04:10:41;;;;;;;0.20;0.20;;;;;;;7.35;52.82;98303.13;5094597;28;20052;-58
2021/04/08 04:13:10;;;;;;;0.20;0.20;;;;;;;6.99;53.26;98304.75;5094554;28;20521;-58
2021/04/08 04:15:38;;;;;;;0.22;0.22;;;;;;;6.51;54.36;98308.09;5094565;28;20044;-59
2021/04/08 04:18:06;;;;;;;0.17;0.17;;;;;;;6.05;55.11;98314.66;5094519;28;20059;-60
2021/04/08 04:20:35;;;;;;;0.20;0.20;;;;;;;5.79;55.56;98311.81;5094265;28;20052;-59
2021/04/08 04:23:02;;;;;;;0.20;0.20;;;;;;;5.81;55.44;98308.03;5094121;28;20060;-59
2021/04/08 04:25:28;;;;;;;0.20;0.20;;;;;;;5.93;55.06;98298.97;5094057;28;20048;-59
2021/04/08 04:27:54;;;;;;;0.20;0.20;;;;;;;6.09;54.60;98302.25;5093913;28;20060;-58
2021/04/08 04:30:21;;;;;;;0.20;0.20;;;;;;;6.26;54.14;98306.16;5075773;28;20455;-59
2021/04/08 04:32:46;;;;;;;0.20;0.20;;;;;;;6.41;53.71;98319.47;5094132;28;20186;-59
2021/04/08 04:35:13;;;;;;;0.20;0.20;;;;;;;6.27;53.83;98315.16;5094082;28;20141;-59
2021/04/08 04:37:39;;;;;;;0.20;0.20;;;;;;;6.02;54.36;98310.50;5093956;28;20120;-61
2021/04/08 04:40:05;;;;;;;0.10;0.10;;;;;;;5.89;54.61;98300.44;5094091;28;20134;-58
2021/04/08 04:42:31;;;;;;;0.20;0.20;;;;;;;5.77;54.78;98304.91;5093519;28;20067;-58
2021/04/08 04:44:57;;;;;;;0.10;0.10;;;;;;;5.62;54.90;98310.63;5093568;28;20055;-58
2021/04/08 04:47:23;;;;;;;0.20;0.20;;;;;;;5.48;55.16;98306.25;5094311;28;20054;-59
2021/04/08 04:49:49;;;;;;;0.20;0.20;;;;;;;5.42;55.22;98302.53;5076112;28;20056;-59
2021/04/08 04:52:16;;;;;;;0.20;0.20;;;;;;;5.32;55.28;98299.41;5093702;28;20052;-57
2021/04/08 04:54:43;;;;;;;0.40;0.40;;;;;;;5.22;55.28;98299.84;5093638;28;20056;-61
2021/04/08 04:57:08;;;;;;;0.20;0.20;;;;;;;5.21;55.25;98306.34;5093713;28;20048;-59
2021/04/08 04:59:34;;;;;;;0.50;0.50;;;;;;;5.16;55.16;98323.31;5093817;28;20449;-60
2021/04/08 05:02:00;;;;;;;0.20;0.20;;;;;;;5.13;55.25;98370.00;5093785;28;20581;-59
2021/04/08 05:04:26;;;;;;;0.20;0.20;;;;;;;5.14;55.10;98358.06;5093640;28;20062;-59
2021/04/08 05:06:51;;;;;;;0.40;0.40;;;;;;;5.21;55.06;98350.75;5093974;28;20079;-60
2021/04/08 05:09:17;;;;;;;0.25;0.25;;;;;;;5.31;54.64;98346.75;5075570;28;20043;-59
2021/04/08 05:11:43;;;;;;;0.20;0.20;;;;;;;5.44;54.51;98360.31;5093430;28;20113;-60
2021/04/08 05:14:09;;;;;;;0.10;0.10;;;;;;;5.54;54.22;98358.00;5093524;28;20456;-58
2021/04/08 05:16:35;;;;;;;0.20;0.20;;;;;;;5.53;54.38;98374.53;5093667;28;20130;-60
2021/04/08 05:19:01;;;;;;;0.20;0.20;;;;;;;5.51;54.45;98376.66;5094004;28;20075;-58
2021/04/08 05:21:26;;;;;;;0.20;0.20;;;;;;;5.55;54.32;98367.84;5093670;28;20462;-59
2021/04/08 05:23:52;;;;;;;0.20;0.20;;;;;;;5.52;54.44;98371.00;5093112;28;20142;-57
2021/04/08 05:26:18;;;;;;;0.20;0.20;;;;;;;5.47;54.64;98378.13;5074661;28;20086;-59
2021/04/08 05:28:44;;;;;;;0.20;0.20;;;;;;;5.44;54.56;98377.47;5092678;28;20421;-58
2021/04/08 05:31:10;;;;;;;0.10;0.10;;;;;;;5.53;54.50;98378.09;5093063;28;20047;-59
2021/04/08 05:33:36;;;;;;;0.20;0.20;;;;;;;5.75;53.94;98388.72;5092785;28;20082;-59
2021/04/08 05:36:01;;;;;;;0.20;0.20;;;;;;;6.22;52.90;98381.25;5093108;28;20044;-59
2021/04/08 05:38:27;;;;;;;0.20;0.20;;;;;;;6.48;52.41;98371.25;5093079;28;20056;-58
2021/04/08 05:40:53;;;;;;;0.20;0.20;;;;;;;6.63;52.25;98381.84;5092863;28;20036;-60
2021/04/08 05:43:19;;;;;;;0.20;0.20;;;;;;;6.64;52.26;98364.41;5092926;28;20052;-61
2021/04/08 05:45:48;;;;;;;0.30;0.30;;;;;;;6.48;52.69;98371.25;5093092;28;20056;-59
2021/04/08 05:48:14;;;;;;;0.20;0.20;;;;;;;6.24;53.36;98370.13;5092842;28;20142;-61
2021/04/08 05:50:41;;;;;;;0.10;0.10;;;;;;;6.16;53.61;98375.84;5092164;28;20478;-60
2021/04/08 05:53:06;;;;;;;0.20;0.20;;;;;;;6.22;53.46;98381.25;5092360;28;20056;-60
2021/04/08 05:55:32;;;;;;;0.20;0.20;;;;;;;6.31;53.44;98374.47;5092660;28;20143;-60
2021/04/08 05:57:58;;;;;;;0.20;0.20;;;;;;;6.36;53.19;98378.44;5092545;28;20052;-60
2021/04/08 06:00:24;;;;;;;0.20;0.20;;;;;;;6.35;53.29;98377.63;5092435;28;20060;-58
2021/04/08 06:02:50;;;;;;;0.20;0.20;;;;;;;6.47;53.19;98370.41;5074490;28;20174;-58
2021/04/08 06:05:16;;;;;;;0.10;0.10;;;;;;;6.63;52.92;98349.94;5092741;28;20205;-58
2021/04/08 06:07:42;;;;;;;0.20;0.20;;;;;;;6.89;52.10;98369.06;5092398;28;20174;-59
2021/04/08 06:10:09;;;;;;;0.20;0.20;;;;;;;7.15;51.68;98355.19;5092486;28;20048;-59
2021/04/08 06:12:39;;;;;;;0.10;0.10;;;;;;;7.60;51.09;98359.59;5092207;28;20052;-59
2021/04/08 06:15:06;;;;;;;0.60;0.40;;;;;;;7.91;50.50;98351.50;5092329;28;20155;-59
2021/04/08 06:17:32;;;;;;;0.20;0.20;;;;;;;8.02;50.53;98348.81;5092465;28;20052;-59
2021/04/08 06:19:57;;;;;;;0.10;0.10;;;;;;;8.18;50.34;98341.03;5092382;28;20048;-59
2021/04/08 06:22:23;;;;;;;0.20;0.20;;;;;;;8.12;50.59;98334.56;5092337;28;20070;-59
2021/04/08 06:24:49;;;;;;;0.22;0.22;;;;;;;8.10;50.86;98338.59;5092509;28;20087;-60
2021/04/08 06:27:15;;;;;;;0.20;0.20;;;;;;;8.13;50.88;98335.44;5092295;28;20055;-59
2021/04/08 06:29:41;;;;;;;0.20;0.20;;;;;;;8.19;50.93;98337.25;5092225;28;20055;-61
2021/04/08 06:32:07;;;;;;;0.20;0.20;;;;;;;8.21;50.98;98322.25;5091999;28;20048;-59
2021/04/08 06:34:33;;;;;;;0.10;0.10;;;;;;;8.24;50.96;98329.16;5091768;28;20048;-58
2021/04/08 06:36:59;;;;;;;0.20;0.20;;;;;;;8.32;50.95;98325.25;5091971;28;20097;-58
2021/04/08 06:39:24;;;;;;;0.10;0.10;;;;;;;8.24;50.99;98318.22;5091679;28;20055;-58
2021/04/08 06:41:51;;;;;;;0.10;0.10;;;;;;;8.13;51.29;98311.66;5091770;28;20139;-61
2021/04/08 06:44:20;;;;;;;0.13;0.13;;;;;;;8.09;51.35;98309.59;5091599;28;20593;-58
2021/04/08 06:46:47;;;;;;;0.10;0.10;;;;;;;8.19;51.17;98320.84;5091561;28;20143;-59
2021/04/08 06:49:18;;;;;;;0.20;0.20;;;;;;;8.21;51.08;98326.88;5091768;28;20114;-59
2021/04/08 06:51:48;;;;;;;0.40;0.40;;;;;;;8.13;51.17;98322.59;5091632;28;20150;-58
2021/04/08 06:54:17;;;;;;;0.20;0.20;;;;;;;8.10;51.26;98324.94;5091693;28;20056;-58
2021/04/08 06:56:43;;;;;;;0.98;0.90;;;;;;;8.25;51.05;98323.44;5091705;28;20056;-60
2021/04/08 06:59:11;;;;;;;0.10;0.10;;;;;;;8.61;50.20;98323.59;5091610;28;20052;-59
2021/04/08 07:01:37;;;;;;;0.22;0.22;;;;;;;8.83;49.93;98315.66;5091293;28;20485;-58
2021/04/08 07:04:06;;;;;;;0.75;0.75;;;;;;;8.85;49.89;98313.53;5094807;28;20101;-59
2021/04/08 07:06:32;;;;;;;11.68;0.63;;;;;;;8.83;49.93;98312.09;5083168;28;20052;-58
2021/04/08 07:08:58;;;;;;;0.20;0.20;;;;;;;8.71;50.36;98310.19;5094800;28;20592;-59
2021/04/08 07:11:26;;;;;;;0.40;0.40;;;;;;;8.58;50.77;98302.19;5077024;28;20055;-59
2021/04/08 07:13:52;;;;;;;0.20;0.20;;;;;;;8.77;50.31;98308.41;5095051;28;20044;-60
2021/04/08 07:16:17;;;;;;;1.45;0.68;;;;;;;8.76;50.23;98290.34;5095146;27;20079;-59
2021/04/08 07:18:43;;;;;;;0.20;0.20;;;;;;;8.59;50.72;98281.97;5095375;28;20063;-59
2021/04/08 07:21:09;;;;;;;0.20;0.20;;;;;;;8.40;51.06;98281.16;5104367;28;20073;-58
2021/04/08 07:23:35;;;;;;;0.70;0.55;;;;;;;8.24;51.36;98275.31;5115805;28;20043;-59
2021/04/08 07:26:05;;;;;;;0.20;0.20;;;;;;;8.01;51.79;98275.19;5099853;28;20585;-58
2021/04/08 07:28:34;;;;;;;0.20;0.20;;;;;;;7.76;52.32;98278.06;5081476;28;20151;-59
2021/04/08 07:31:23;;;;;;;0.55;0.55;;;;;;;7.66;52.43;98270.41;5085712;28;20131;-59
2021/04/08 07:33:55;;;;;;;0.10;0.10;;;;;;;7.77;52.04;98266.06;5061988;28;20056;-59
2021/04/08 07:36:31;;;;;;;0.20;0.20;;;;;;;7.95;51.82;98279.72;5061745;28;20374;-60
2021/04/08 07:38:58;;;;;;;0.10;0.10;;;;;;;8.03;51.60;98282.09;5085008;28;20053;-59
2021/04/08 07:41:35;;;;;;;0.20;0.20;;;;;;;8.05;51.64;98280.00;5062661;28;20036;-59
2021/04/08 07:44:04;;;;;;;1.25;1.25;;;;;;;8.06;51.65;98284.38;5082714;28;20043;-58
2021/04/08 07:46:42;;;;;;;0.20;0.20;;;;;;;8.05;51.81;98276.41;5086724;28;20048;-58
2021/04/08 07:49:26;;;;;;;0.20;0.20;;;;;;;8.01;51.82;98287.00;5079333;28;20135;-59
2021/04/08 07:51:52;;;;;;;0.20;0.20;;;;;;;7.98;51.89;98289.34;5089925;28;20060;-60
2021/04/08 07:54:19;;;;;;;0.20;0.20;;;;;;;8.01;51.92;98295.19;5087521;28;20072;-60
2021/04/08 07:56:46;;;;;;;0.38;0.38;;;;;;;8.16;51.55;98300.25;5057541;28;20143;-60
2021/04/08 07:59:18;;;;;;;0.28;0.28;;;;;;;8.30;51.45;98289.94;5078054;28;20044;-59
2021/04/08 08:01:45;;;;;;;0.20;0.20;;;;;;;8.47;51.01;98287.41;5089990;28;20127;-58
2021/04/08 08:04:26;;;;;;;0.20;0.20;;;;;;;8.72;50.71;98286.41;5097778;28;20071;-57
2021/04/08 08:06:53;;;;;;;0.57;0.40;;;;;;;8.97;50.07;98288.09;5106263;28;20051;-58
2021/04/08 08:09:30;;;;;;;0.25;0.25;;;;;;;9.00;50.15;98282.97;5109910;28;20048;-60
2021/04/08 08:12:06;;;;;;;0.20;0.20;;;;;;;9.01;50.25;98279.16;5094211;28;20047;-60
2021/04/08 08:14:40;;;;;;;0.20;0.20;;;;;;;9.20;49.88;98279.03;5106146;28;20047;-59
2021/04/08 08:17:09;;;;;;;0.20;0.20;;;;;;;9.46;49.60;98278.50;5114816;28;20059;-59
2021/04/08 08:19:36;;;;;;;0.10;0.10;;;;;;;9.66;49.33;98280.03;5109989;28;20481;-59
2021/04/08 08:22:04;;;;;;;0.10;0.10;;;;;;;9.74;49.18;98268.69;5095059;28;20147;-59
2021/04/08 08:24:30;;;;;;;0.20;0.20;;;;;;;9.86;49.07;98273.31;5096031;28;20055;-60
2021/04/08 08:26:57;;;;;;;0.20;0.20;;;;;;;10.00;48.89;98280.19;5075573;28;20489;-59
2021/04/08 08:29:26;;;;;;;0.82;0.17;;;;;;;9.84;49.40;98278.22;5089664;28;20097;-59
2021/04/08 08:32:04;;;;;;;0.10;0.10;;;;;;;9.72;49.82;98281.81;5082822;28;20055;-60
2021/04/08 08:34:34;;;;;;;0.10;0.10;;;;;;;9.76;49.79;98285.75;5084495;28;20055;-59
2021/04/08 08:37:02;;;;;;;0.20;0.20;;;;;;;9.80;49.92;98291.56;5093189;28;20079;-58
2021/04/08 08:39:43;;;;;;;0.20;0.20;;;;;;;9.85;49.74;98290.81;5084501;28;20131;-58
2021/04/08 08:42:12;;;;;;;0.30;0.30;;;;;;;9.79;49.97;98288.00;5084414;28;20078;-60
2021/04/08 08:44:39;;;;;;;0.10;0.10;;;;;;;9.93;49.74;98282.22;5081250;28;20047;-59
2021/04/08 08:47:18;;;;;;;0.10;0.10;;;;;;;10.20;49.15;98284.38;5083729;28;20839;-59
2021/04/08 08:49:48;;;;;;;0.17;0.17;;;;;;;10.24;49.11;98286.38;5082108;28;20509;-61
2021/04/08 08:52:20;;;;;;;0.20;0.20;;;;;;;10.12;49.40;98275.47;5063139;28;20116;-60
2021/04/08 08:54:48;;;;;;;0.10;0.10;;;;;;;10.08;49.50;98282.50;5080874;28;20071;-62
2021/04/08 08:57:17;;;;;;;0.10;0.10;;;;;;;9.93;49.64;98282.22;5084717;28;20056;-60
2021/04/08 08:59:45;;;;;;;0.20;0.20;;;;;;;9.77;50.13;98292.88;5082247;28;20047;-61
2021/04/08 09:02:11;;;;;;;0.20;0.20;;;;;;;9.75;50.10;98281.31;5060349;28;20044;-60
2021/04/08 09:04:38;;;;;;;0.10;0.10;;;;;;;9.90;49.76;98293.69;5059968;28;20079;-60
2021/04/08 09:07:06;;;;;;;0.20;0.20;;;;;;;10.04;49.43;98280.50;5085246;28;20121;-61
2021/04/08 09:09:33;;;;;;;0.10;0.10;;;;;;;10.09;49.48;98283.38;5082481;28;20055;-59
2021/04/08 09:12:04;;;;;;;0.20;0.20;;;;;;;10.16;49.33;98281.31;5061319;28;20124;-59
2021/04/08 09:14:33;;;;;;;0.17;0.17;;;;;;;10.20;49.24;98281.63;5084123;28;20051;-59
2021/04/08 09:17:00;;;;;;;0.10;0.10;;;;;;;10.11;49.32;98298.47;5080663;28;20047;-60
2021/04/08 09:19:29;;;;;;;0.10;0.10;;;;;;;9.90;49.86;98310.97;5079601;28;20044;-60
2021/04/08 09:22:01;;;;;;;0.20;0.20;;;;;;;9.72;50.24;98292.78;5085348;28;20513;-60
2021/04/08 09:24:43;;;;;;;0.20;0.20;;;;;;;9.54;50.69;98290.19;5080746;28;20045;-60
2021/04/08 09:27:09;;;;;;;0.40;0.30;;;;;;;9.34;51.10;98287.84;5076952;28;20102;-59
2021/04/08 09:29:41;;;;;;;0.10;0.10;;;;;;;9.30;51.30;98290.22;5082370;28;20072;-59
2021/04/08 09:32:47;;;;;;;0.10;0.10;;;;;;;9.39;50.98;98277.84;5077213;28;20044;-59
2021/04/08 09:35:18;;;;;;;0.10;0.10;;;;;;;9.50;50.69;98280.78;5083472;28;20044;-61
2021/04/08 09:37:44;;;;;;;0.75;0.75;;;;;;;9.46;50.68;98299.63;5082707;28;20044;-62
2021/04/08 09:40:37;;;;;;;0.10;0.10;;;;;;;9.43;50.82;98298.19;5076472;28;20090;-62
2021/04/08 09:43:11;;;;;;;0.20;0.20;;;;;;;9.50;50.81;98302.72;5008566;28;20080;-62
2021/04/08 09:45:57;;;;;;;0.10;0.10;;;;;;;9.43;50.93;98311.06;5025323;28;20053;-62
2021/04/08 09:48:40;;;;;;;0.20;0.20;;;;;;;9.39;51.02;98307.13;5010544;28;20212;-62
2021/04/08 09:51:07;;;;;;;0.30;0.30;;;;;;;9.39;51.02;98313.47;5028101;28;20430;-62
2021/04/08 09:53:57;;;;;;;0.10;0.10;;;;;;;9.35;51.27;98322.38;5024056;28;20060;-62
2021/04/08 09:56:54;;;;;;;0.20;0.20;;;;;;;9.29;51.31;98316.78;4982603;28;20054;-62
2021/04/08 09:59:21;;;;;;;0.20;0.20;;;;;;;9.34;51.17;98324.28;4983827;28;20133;-64
2021/04/08 10:01:48;;;;;;;0.10;0.10;;;;;;;9.34;51.36;98321.53;4987915;28;20871;-62
2021/04/08 10:04:21;;;;;;;0.10;0.10;;;;;;;9.33;51.45;98339.03;4989195;28;20051;-61
2021/04/08 10:07:02;;;;;;;0.20;0.20;;;;;;;9.15;51.65;98341.91;4988455;28;20046;-62
2021/04/08 10:09:28;;;;;;;0.10;0.10;;;;;;;8.99;52.05;98348.91;4951255;28;20107;-62
2021/04/08 10:11:54;;;;;;;0.10;0.10;;;;;;;8.87;52.57;98352.47;4980651;28;20042;-63
2021/04/08 10:14:24;;;;;;;0.15;0.15;;;;;;;8.91;52.48;98350.09;4988624;28;20042;-62
2021/04/08 10:17:16;;;;;;;0.20;0.20;;;;;;;9.00;52.40;98354.16;4979556;28;20088;-62
2021/04/08 10:19:46;;;;;;;0.13;0.13;;;;;;;9.03;52.26;98350.94;4984959;28;20078;-62
2021/04/08 10:22:13;;;;;;;0.10;0.10;;;;;;;9.12;52.10;98355.00;4986192;28;20046;-60
2021/04/08 10:24:43;;;;;;;0.20;0.20;;;;;;;9.12;52.07;98357.72;4984627;28;20050;-62
2021/04/08 10:27:18;;;;;;;0.10;0.10;;;;;;;8.94;52.63;98360.59;5002040;28;20396;-60
2021/04/08 10:29:45;;;;;;;0.45;0.45;;;;;;;8.73;53.28;98348.25;5005143;28;20065;-60
2021/04/08 10:32:11;;;;;;;0.10;0.10;;;;;;;8.59;53.54;98353.94;5001332;28;20041;-60
2021/04/08 10:34:41;;;;;;;0.20;0.20;;;;;;;8.40;54.17;98361.34;5058601;28;20088;-60
2021/04/08 10:37:10;;;;;;;0.20;0.20;;;;;;;8.22;54.50;98355.91;5081003;28;20106;-62
2021/04/08 10:39:40;;;;;;;0.47;0.47;;;;;;;8.23;54.57;98360.34;5082600;28;20052;-60
2021/04/08 10:42:10;;;;;;;0.20;0.20;;;;;;;8.36;54.22;98356.56;5067079;28;20044;-63
2021/04/08 10:44:52;;;;;;;0.28;0.28;;;;;;;8.49;54.03;98361.06;5082934;28;20390;-60
2021/04/08 10:47:22;;;;;;;0.20;0.20;;;;;;;8.53;53.93;98360.34;5080086;28;20036;-60
2021/04/08 10:49:50;;;;;;;0.17;0.17;;;;;;;8.56;53.80;98357.16;5071999;28;20422;-59
2021/04/08 10:52:20;;;;;;;0.10;0.10;;;;;;;8.52;53.96;98357.84;5080052;28;20054;-59
2021/04/08 10:54:52;;;;;;;0.20;0.20;;;;;;;8.50;53.99;98349.03;5080966;28;20213;-62
2021/04/08 10:57:22;;;;;;;0.38;0.32;;;;;;;8.44;54.35;98360.91;5077368;28;20048;-61
2021/04/08 10:59:50;;;;;;;0.10;0.10;;;;;;;8.31;54.77;98361.91;5075116;28;20580;-59
2021/04/08 11:02:25;;;;;;;0.10;0.10;;;;;;;8.20;55.04;98349.81;5080027;28;20044;-59
2021/04/08 11:04:53;;;;;;;0.10;0.10;;;;;;;8.18;55.18;98343.75;5078527;28;20092;-62
2021/04/08 11:07:20;;;;;;;0.20;0.20;;;;;;;8.13;55.19;98343.63;5057205;28;20053;-58
2021/04/08 11:09:47;;;;;;;0.17;0.17;;;;;;;8.11;55.33;98343.00;5052790;28;20041;-60
2021/04/08 11:12:21;;;;;;;0.20;0.20;;;;;;;8.16;55.21;98343.16;5066120;28;20545;-60
2021/04/08 11:14:55;;;;;;;0.20;0.20;;;;;;;8.25;55.22;98344.50;5077782;28;20075;-59
2021/04/08 11:17:22;;;;;;;;;;;;;;;8.13;55.39;98339.00;5060367;28;20556;-59
2021/04/08 11:19:49;;;;;;;0.20;0.20;;;;;;;7.99;55.57;98341.03;5042015;28;19921;-59
2021/04/08 11:22:17;;;;;;;0.30;0.30;;;;;;;7.80;56.00;98345.72;5091199;28;20051;-59
2021/04/08 11:24:45;;;;;;;0.20;0.20;;;;;;;7.66;56.17;98349.66;5095251;28;20052;-58
2021/04/08 11:27:11;;;;;;;0.30;0.30;;;;;;;7.54;56.62;98350.41;5107143;28;20088;-61
2021/04/08 11:29:37;;;;;;;0.20;0.20;;;;;;;7.44;56.61;98357.47;5107767;28;20075;-60
2021/04/08 11:32:12;;;;;;;0.20;0.20;;;;;;;7.51;56.63;98350.88;5103375;28;20213;-59
2021/04/08 11:34:53;;;;;;;0.20;0.20;;;;;;;7.52;56.65;98368.09;5065697;28;21182;-59
2021/04/08 11:37:35;;;;;;;0.28;0.28;;;;;;;7.45;56.82;98370.91;5052607;28;20063;-59
2021/04/08 11:40:02;;;;;;;1.45;0.40;;;;;;;7.41;56.81;98369.66;5071328;28;20079;-58
2021/04/08 11:42:38;;;;;;;0.20;0.20;;;;;;;7.43;56.79;98375.72;5060538;28;20146;-61
2021/04/08 11:45:31;;;;;;;0.30;0.30;;;;;;;7.45;56.72;98381.81;5052118;28;20059;-61
2021/04/08 11:48:06;;;;;;;0.32;0.32;;;;;;;7.46;56.67;98386.19;5078066;28;20049;-60
2021/04/08 11:50:37;;;;;;;0.40;0.40;;;;;;;7.49;56.65;98390.38;5091104;28;20056;-60
2021/04/08 11:53:04;;;;;;;0.10;0.10;;;;;;;7.62;56.41;98390.25;5087388;28;20139;-60